Time;durP1;ratioP1;P1;durP2;ratioP2;P2;SDS_P1;SDS_P2;PMS_P1;PMS_P2;Temp;Humidity;BMP_temperature;BMP_pressure;BME280_temperature;BME280_humidity;BME280_pressure;Samples;Min_cycle;Max_cycle;Signal;HPM_P1;HPM_P2
2022/04/02 00:02:25;;;;;;;36.65;6.58;;;;;;;14.69;40.72;99026.27;1758115;81;21311;-73
2022/04/02 00:04:52;;;;;;;33.75;7.40;;;;;;;14.66;40.74;99014.72;1757902;81;20853;-74
2022/04/02 00:07:19;;;;;;;40.00;6.87;;;;;;;14.59;40.75;99026.90;1758229;81;21397;-73
2022/04/02 00:09:47;;;;;;;33.83;6.55;;;;;;;14.54;40.87;99016.79;1757813;81;20889;-72
2022/04/02 00:12:13;;;;;;;38.00;7.00;;;;;;;14.54;40.87;99016.79;1758169;80;20920;-73
2022/04/02 00:14:41;;;;;;;47.15;7.67;;;;;;;14.54;40.92;99028.66;1757953;80;21888;-71
2022/04/02 00:17:09;;;;;;;36.00;6.30;;;;;;;14.53;40.87;99016.94;1757752;81;21114;-72
2022/04/02 00:19:38;;;;;;;36.13;6.80;;;;;;;14.51;40.84;99025.81;1757846;81;21397;-73
2022/04/02 00:22:05;;;;;;;32.28;6.90;;;;;;;14.51;40.83;99015.27;1758179;81;20900;-72
2022/04/02 00:24:33;;;;;;;32.38;6.25;;;;;;;14.49;40.69;99019.05;1757899;81;20873;-72
2022/04/02 00:27:00;;;;;;;41.68;8.48;;;;;;;14.53;40.72;99019.58;1757931;80;21621;-72
2022/04/02 00:29:27;;;;;;;28.47;5.97;;;;;;;14.53;40.65;99016.44;1757749;81;20873;-73
2022/04/02 00:31:54;;;;;;;25.35;7.33;;;;;;;14.54;40.51;99023.85;1757985;80;21327;-72
2022/04/02 00:34:22;;;;;;;39.33;8.10;;;;;;;14.55;40.53;99011.87;1757748;80;20968;-73
2022/04/02 00:36:51;;;;;;;37.75;5.85;;;;;;;14.58;40.64;99008.90;1757920;81;20845;-72
2022/04/02 00:39:20;;;;;;;24.40;5.95;;;;;;;14.58;40.64;99008.90;1757987;81;21120;-72
2022/04/02 00:41:46;;;;;;;31.12;5.42;;;;;;;14.58;40.38;99001.48;1757833;81;20924;-73
2022/04/02 00:44:14;;;;;;;34.20;7.15;;;;;;;14.58;40.23;99001.48;1758081;81;21018;-74
2022/04/02 00:46:42;;;;;;;32.70;7.62;;;;;;;14.57;40.12;98998.03;1757781;80;20940;-73
2022/04/02 00:49:12;;;;;;;27.32;6.15;;;;;;;14.57;40.12;98998.03;1757889;81;20983;-73
2022/04/02 00:51:43;;;;;;;36.80;7.62;;;;;;;14.55;40.36;98986.80;1757845;81;21167;-73
2022/04/02 00:54:16;;;;;;;35.05;8.03;;;;;;;14.55;40.36;98986.80;1757788;80;20944;-73
2022/04/02 00:56:44;;;;;;;41.40;6.87;;;;;;;14.55;40.40;98991.27;1693899;82;21124;-72
2022/04/02 00:59:12;;;;;;;37.40;7.03;;;;;;;14.55;40.42;98991.27;1716418;83;20947;-72
2022/04/02 01:01:39;;;;;;;31.73;7.62;;;;;;;14.53;40.36;98983.47;1716350;83;20849;-73
2022/04/02 01:04:09;;;;;;;31.62;7.17;;;;;;;14.50;40.45;98979.34;1752912;81;21645;-72
2022/04/02 01:06:38;;;;;;;27.80;7.35;;;;;;;14.49;40.45;98982.13;1716161;83;20928;-76
2022/04/02 01:09:06;;;;;;;34.18;9.50;;;;;;;14.49;40.44;98971.07;1688807;83;20888;-73
2022/04/02 01:11:40;;;;;;;32.90;4.97;;;;;;;14.48;40.43;98977.34;1716314;83;20984;-73
2022/04/02 01:14:08;;;;;;;33.45;7.72;;;;;;;14.46;40.47;98968.77;1716596;83;20980;-75
2022/04/02 01:16:35;;;;;;;27.35;5.55;;;;;;;14.44;40.43;98969.91;1716508;82;21143;-73
2022/04/02 01:19:05;;;;;;;27.98;7.22;;;;;;;14.42;40.38;98969.23;1752549;81;20968;-73
2022/04/02 01:21:32;;;;;;;34.40;7.03;;;;;;;14.40;40.40;98969.38;1752609;82;20904;-73
2022/04/02 01:24:02;;;;;;;29.85;6.03;;;;;;;14.36;40.36;98961.94;1715804;82;20975;-73
2022/04/02 01:26:30;;;;;;;38.13;8.03;;;;;;;14.36;40.36;98961.94;1716625;82;20927;-72
2022/04/02 01:28:59;;;;;;;29.63;6.97;;;;;;;14.35;40.25;98962.94;1751783;81;21133;-72
2022/04/02 01:31:28;;;;;;;34.78;5.65;;;;;;;14.34;40.29;98968.72;1751957;81;20888;-72
2022/04/02 01:33:56;;;;;;;34.45;6.95;;;;;;;14.31;40.38;98960.60;1752532;82;20932;-74
2022/04/02 01:36:26;;;;;;;30.00;6.58;;;;;;;14.27;40.44;98967.66;1752832;82;21362;-72
2022/04/02 01:38:54;;;;;;;30.50;5.87;;;;;;;14.24;40.53;98963.53;1751322;81;20948;-73
2022/04/02 01:41:21;;;;;;;26.65;5.30;;;;;;;14.20;40.76;98960.88;1752709;82;21218;-73
2022/04/02 01:43:49;;;;;;;38.65;6.62;;;;;;;14.15;40.96;98947.34;1753825;82;20900;-72
2022/04/02 01:46:16;;;;;;;43.98;6.33;;;;;;;14.10;41.09;98949.13;1752887;82;21331;-72
2022/04/02 01:48:45;;;;;;;33.83;6.12;;;;;;;14.00;41.67;98943.63;1716610;82;20971;-73
2022/04/02 01:51:12;;;;;;;35.65;7.45;;;;;;;14.00;41.67;98943.63;1716521;83;20979;-73
2022/04/02 01:53:39;;;;;;;31.93;6.72;;;;;;;13.95;41.69;98934.05;1716516;83;21241;-73
2022/04/02 01:56:09;;;;;;;35.58;7.83;;;;;;;13.91;41.80;98941.92;1751972;81;20901;-73
2022/04/02 01:58:42;;;;;;;35.33;6.45;;;;;;;13.82;42.08;98944.48;1708509;84;20939;-72
2022/04/02 02:01:10;;;;;;;32.50;6.83;;;;;;;13.82;42.08;98944.48;1744541;81;20956;-73
2022/04/02 02:03:39;;;;;;;28.05;5.97;;;;;;;13.78;42.29;98944.45;1744689;81;21382;-72
2022/04/02 02:06:07;;;;;;;33.35;5.53;;;;;;;13.75;42.50;98932.10;1744672;82;21639;-72
2022/04/02 02:08:34;;;;;;;31.35;7.50;;;;;;;13.72;42.68;98927.97;1687269;84;20881;-72
2022/04/02 02:11:07;;;;;;;30.55;6.45;;;;;;;13.67;42.88;98927.59;1743745;81;20928;-72
2022/04/02 02:13:51;;;;;;;28.00;6.80;;;;;;;13.62;43.24;98930.68;1650839;86;20945;-73
2022/04/02 02:16:20;;;;;;;35.20;6.58;;;;;;;13.55;43.53;98923.06;1651052;87;21517;-74
2022/04/02 02:18:48;;;;;;;29.12;6.60;;;;;;;13.48;43.90;98924.16;1650858;86;21220;-73
2022/04/02 02:21:15;;;;;;;30.62;7.90;;;;;;;13.41;44.20;98923.12;1651172;87;20987;-72
2022/04/02 02:23:42;;;;;;;29.37;7.20;;;;;;;13.34;44.57;98912.88;1651063;85;20941;-73
2022/04/02 02:26:09;;;;;;;22.50;6.37;;;;;;;13.26;45.02;98912.76;1650867;86;20992;-74
2022/04/02 02:28:36;;;;;;;29.30;5.62;;;;;;;13.19;45.38;98907.77;1651222;87;20924;-74
2022/04/02 02:31:03;;;;;;;29.55;6.12;;;;;;;13.10;45.71;98912.13;1651278;85;21152;-72
2022/04/02 02:36:17;;;;;;;32.78;7.28;;;;;;;12.98;46.23;98905.41;1651037;87;20940;-73
2022/04/02 02:38:46;;;;;;;27.45;6.22;;;;;;;12.91;46.54;98910.45;1650356;87;20881;-72
2022/04/02 02:41:18;;;;;;;31.20;6.58;;;;;;;12.86;46.79;98903.50;1650432;87;20873;-72
2022/04/02 02:43:46;;;;;;;21.70;5.50;;;;;;;12.82;47.03;98900.83;1650834;87;22404;-72
2022/04/02 02:46:17;;;;;;;26.52;6.05;;;;;;;12.77;47.21;98896.02;1650122;87;20925;-73
2022/04/02 02:48:45;;;;;;;28.25;5.85;;;;;;;12.73;47.31;98885.44;1658786;80;21521;-73
2022/04/02 02:51:13;;;;;;;29.77;6.78;;;;;;;12.69;47.52;98882.77;1744528;82;21348;-72
2022/04/02 02:53:44;;;;;;;51.35;9.78;;;;;;;12.67;47.73;98890.47;1744552;82;20968;-74
2022/04/02 02:56:11;;;;;;;28.12;6.17;;;;;;;12.64;48.04;98892.42;1708838;84;21956;-72
2022/04/02 02:58:39;;;;;;;31.25;6.40;;;;;;;12.64;48.04;98892.42;1708805;84;20932;-73
2022/04/02 03:01:07;;;;;;;32.60;8.13;;;;;;;12.64;48.21;98892.91;1708850;84;20916;-73
2022/04/02 03:03:36;;;;;;;29.57;6.20;;;;;;;12.64;48.38;98879.77;1708776;84;21023;-73
2022/04/02 03:06:04;;;;;;;36.83;7.33;;;;;;;12.64;48.58;98874.01;1708891;84;20896;-74
2022/04/02 03:08:34;;;;;;;39.18;6.97;;;;;;;12.63;48.69;98882.89;1744847;81;21299;-74
2022/04/02 03:11:01;;;;;;;29.25;6.55;;;;;;;12.62;48.86;98894.36;1744452;82;20937;-73
2022/04/02 03:13:30;;;;;;;28.42;5.85;;;;;;;12.60;49.07;98887.60;1709054;84;21473;-72
2022/04/02 03:16:05;;;;;;;26.35;6.42;;;;;;;12.57;49.27;98890.05;1744751;81;20958;-73
2022/04/02 03:18:32;;;;;;;32.50;6.20;;;;;;;12.55;49.44;98881.97;1744533;81;20893;-73
2022/04/02 03:21:01;;;;;;;32.45;7.03;;;;;;;12.53;49.60;98881.28;1744495;81;22100;-73
2022/04/02 03:23:28;;;;;;;39.53;8.63;;;;;;;12.50;49.82;98882.41;1744452;82;20885;-72
2022/04/02 03:25:55;;;;;;;31.55;6.40;;;;;;;12.47;49.95;98874.80;1744614;82;20964;-73
2022/04/02 03:28:23;;;;;;;35.98;6.65;;;;;;;12.46;50.15;98866.59;1744375;80;20973;-73
2022/04/02 03:30:49;;;;;;;31.77;8.70;;;;;;;12.47;50.30;98862.15;1744552;82;21395;-72
2022/04/02 03:33:20;;;;;;;28.25;6.53;;;;;;;12.47;50.59;98860.84;1744507;82;21717;-73
2022/04/02 03:35:46;;;;;;;32.90;7.05;;;;;;;12.47;50.68;98866.09;1744523;81;20920;-73
2022/04/02 03:38:13;;;;;;;32.17;6.20;;;;;;;12.47;50.91;98858.20;1744502;80;20937;-73
2022/04/02 03:40:42;;;;;;;37.95;7.05;;;;;;;12.51;51.00;98858.25;1744486;81;20971;-73
2022/04/02 03:43:11;;;;;;;31.87;6.50;;;;;;;12.53;51.05;98842.66;1744557;81;20932;-72
2022/04/02 03:45:39;;;;;;;27.85;7.90;;;;;;;12.57;51.07;98843.20;1744607;82;21977;-71
2022/04/02 03:48:08;;;;;;;32.45;6.87;;;;;;;12.59;51.22;98836.00;1744417;82;20885;-74
2022/04/02 03:50:36;;;;;;;36.42;8.68;;;;;;;12.63;51.26;98839.50;1709088;83;20837;-73
2022/04/02 03:53:03;;;;;;;50.63;8.73;;;;;;;12.66;51.21;98833.11;1709225;83;21434;-72
2022/04/02 03:55:34;;;;;;;30.65;6.85;;;;;;;12.70;51.18;98838.41;1745110;81;20920;-74
2022/04/02 03:58:04;;;;;;;34.67;7.62;;;;;;;12.73;51.26;98833.34;1713563;83;21830;-74
2022/04/02 04:00:31;;;;;;;34.10;6.10;;;;;;;12.79;51.14;98834.05;1716263;82;20990;-73
2022/04/02 04:03:02;;;;;;;38.28;7.47;;;;;;;12.83;51.14;98834.10;1752443;80;20936;-73
2022/04/02 04:05:31;;;;;;;30.32;7.97;;;;;;;12.89;51.04;98832.66;1712984;82;20939;-73
2022/04/02 04:08:01;;;;;;;30.77;6.35;;;;;;;12.94;50.93;98825.13;1752471;82;20916;-73
2022/04/02 04:10:29;;;;;;;39.88;6.10;;;;;;;13.00;50.88;98823.21;1752488;82;21566;-72
2022/04/02 04:12:56;;;;;;;30.00;6.95;;;;;;;13.05;50.79;98820.97;1752471;80;20869;-74
2022/04/02 04:15:26;;;;;;;34.15;7.00;;;;;;;13.12;50.63;98818.06;1752322;81;20983;-73
2022/04/02 04:17:56;;;;;;;44.15;7.75;;;;;;;13.22;50.49;98829.30;1752464;82;20928;-73
2022/04/02 04:20:23;;;;;;;44.38;7.78;;;;;;;13.30;50.30;98836.98;1752556;82;20908;-72
2022/04/02 04:22:52;;;;;;;38.28;10.35;;;;;;;13.38;50.19;98822.53;1752406;81;21462;-74
2022/04/02 04:25:22;;;;;;;30.85;6.05;;;;;;;13.38;50.19;98822.53;1752735;82;20972;-72
2022/04/02 04:27:51;;;;;;;23.40;5.97;;;;;;;13.41;50.31;98832.78;1752566;82;20901;-73
2022/04/02 04:30:19;;;;;;;34.05;8.05;;;;;;;13.41;50.31;98832.78;1752377;82;20857;-74
2022/04/02 04:32:47;;;;;;;34.80;6.75;;;;;;;13.45;50.12;98833.63;1752781;80;21398;-76
2022/04/02 04:35:13;;;;;;;33.92;7.17;;;;;;;13.43;50.13;98830.33;1752499;80;21864;-74
2022/04/02 04:37:41;;;;;;;29.63;7.58;;;;;;;13.42;50.26;98831.28;1752632;82;20988;-72
2022/04/02 04:40:11;;;;;;;34.18;7.08;;;;;;;13.42;50.33;98833.10;1715537;83;20928;-72
2022/04/02 04:42:40;;;;;;;33.40;7.35;;;;;;;13.47;50.29;98829.50;1688448;83;21395;-73
2022/04/02 04:45:09;;;;;;;30.95;7.75;;;;;;;13.51;50.29;98822.13;1752639;81;20913;-72
2022/04/02 04:47:36;;;;;;;41.05;7.72;;;;;;;13.61;50.16;98822.37;1716439;83;21175;-72
2022/04/02 04:50:04;;;;;;;39.85;9.45;;;;;;;13.79;49.84;98824.94;1716356;83;20888;-72
2022/04/02 04:52:34;;;;;;;41.98;10.45;;;;;;;14.02;49.26;98825.19;1752526;82;20913;-72
2022/04/02 04:55:05;;;;;;;31.27;8.63;;;;;;;14.29;48.65;98806.17;1752557;82;20936;-73
2022/04/02 04:57:32;;;;;;;37.17;8.48;;;;;;;14.59;47.96;98808.76;1754106;81;21501;-73
2022/04/02 05:00:00;;;;;;;37.58;6.85;;;;;;;14.80;47.46;98804.31;1720693;83;21828;-73
2022/04/02 05:02:30;;;;;;;36.42;6.60;;;;;;;14.99;47.08;98791.80;1721806;83;20891;-73
2022/04/02 05:04:57;;;;;;;27.52;6.87;;;;;;;15.07;46.85;98807.15;1722329;82;20864;-73
2022/04/02 05:07:24;;;;;;;39.95;7.33;;;;;;;15.12;46.89;98794.77;1722690;83;20951;-73
2022/04/02 05:11:53;;;;;;;35.95;10.60;;;;;;;15.03;47.16;98789.14;1790258;79;24596;-73
2022/04/02 05:14:21;;;;;;;29.85;7.80;;;;;;;14.80;47.73;98805.63;1750093;80;21027;-72
2022/04/02 05:16:52;;;;;;;39.33;9.18;;;;;;;14.71;48.21;98813.22;1749655;82;21617;-73
2022/04/02 05:19:21;;;;;;;36.15;9.50;;;;;;;14.71;48.14;98808.76;1750209;82;20888;-75
2022/04/02 05:21:49;;;;;;;38.00;7.53;;;;;;;14.76;48.11;98808.77;1750414;82;20853;-74
2022/04/02 05:24:17;;;;;;;36.55;7.25;;;;;;;14.76;48.10;98804.31;1750194;82;20928;-73
2022/04/02 05:26:50;;;;;;;40.83;8.25;;;;;;;14.81;48.19;98811.77;1749975;82;20940;-73
2022/04/02 05:29:16;;;;;;;32.63;7.47;;;;;;;15.02;47.91;98814.72;1750007;82;21281;-73
2022/04/02 05:31:46;;;;;;;38.00;7.10;;;;;;;15.21;47.55;98804.83;1749903;80;20909;-74
2022/04/02 05:34:12;;;;;;;43.70;9.30;;;;;;;15.30;47.38;98804.64;1750016;82;20936;-72
2022/04/02 05:36:41;;;;;;;41.30;9.43;;;;;;;15.27;47.52;98822.16;1749920;81;20912;-72
2022/04/02 05:39:07;;;;;;;30.25;7.75;;;;;;;15.45;47.30;98807.44;1750378;81;20889;-71
2022/04/02 05:41:37;;;;;;;34.35;7.45;;;;;;;15.68;46.98;98815.47;1751686;80;21905;-73
2022/04/02 05:44:07;;;;;;;36.73;9.35;;;;;;;15.99;46.36;98813.42;1750367;82;20924;-73
2022/04/02 05:46:35;;;;;;;35.00;7.62;;;;;;;16.17;46.11;98819.78;1749966;82;21006;-74
2022/04/02 05:49:01;;;;;;;38.08;7.80;;;;;;;16.15;46.24;98816.48;1749994;82;21402;-73
2022/04/02 05:51:28;;;;;;;32.93;7.40;;;;;;;15.99;46.91;98826.64;1750019;80;20888;-72
2022/04/02 05:53:55;;;;;;;35.83;7.97;;;;;;;15.83;47.15;98826.20;1749886;82;21308;-74
2022/04/02 05:56:22;;;;;;;35.10;9.63;;;;;;;15.82;47.52;98819.25;1749977;80;20915;-72
2022/04/02 05:58:51;;;;;;;36.00;7.53;;;;;;;15.88;47.47;98813.80;1749918;82;20873;-72
2022/04/02 06:01:18;;;;;;;39.42;8.10;;;;;;;16.23;47.07;98818.25;1749878;82;21022;-73
2022/04/02 06:03:44;;;;;;;37.25;7.80;;;;;;;16.69;46.35;98822.30;1750210;82;20939;-74
2022/04/02 06:06:12;;;;;;;29.50;9.20;;;;;;;17.16;45.60;98816.01;1750006;82;21241;-73
2022/04/02 06:08:39;;;;;;;27.90;7.03;;;;;;;17.66;44.49;98826.98;1749915;80;21403;-72
2022/04/02 06:11:08;;;;;;;36.10;9.53;;;;;;;18.06;43.71;98843.47;1742142;81;20956;-73
2022/04/02 06:13:36;;;;;;;32.88;8.20;;;;;;;18.28;43.18;98821.30;1736637;82;20862;-72
2022/04/02 06:16:03;;;;;;;34.03;8.90;;;;;;;18.49;42.83;98820.51;1736882;82;21350;-74
2022/04/02 06:18:30;;;;;;;30.70;7.03;;;;;;;18.69;42.55;98827.87;1736837;82;21435;-75
2022/04/02 06:20:57;;;;;;;32.55;7.72;;;;;;;18.92;42.30;98823.23;1736595;82;21394;-74
2022/04/02 06:23:25;;;;;;;34.23;8.03;;;;;;;19.13;41.86;98836.19;1736208;81;21371;-74
2022/04/02 06:25:52;;;;;;;34.50;8.68;;;;;;;19.37;41.58;98837.63;1736453;81;20893;-74
2022/04/02 06:28:19;;;;;;;25.15;7.50;;;;;;;19.58;41.18;98826.91;1736232;82;21387;-73
2022/04/02 06:30:47;;;;;;;26.52;8.15;;;;;;;19.84;40.83;98824.97;1736109;81;21107;-73
2022/04/02 06:33:14;;;;;;;27.90;8.40;;;;;;;20.06;40.44;98846.98;1736375;82;21007;-74
2022/04/02 06:35:41;;;;;;;27.22;6.95;;;;;;;20.14;40.45;98849.97;1736093;82;20905;-74
2022/04/02 06:38:08;;;;;;;23.47;6.42;;;;;;;20.32;40.17;98840.64;1736181;82;21379;-74
2022/04/02 06:40:35;;;;;;;27.02;5.22;;;;;;;20.54;39.91;98841.33;1736190;81;21462;-76
2022/04/02 06:43:02;;;;;;;23.98;6.37;;;;;;;20.77;39.49;98851.69;1736247;82;21288;-74
2022/04/02 06:45:35;;;;;;;21.97;6.67;;;;;;;20.94;39.07;98843.59;1735473;82;20892;-76
2022/04/02 06:48:04;;;;;;;24.15;6.12;;;;;;;21.13;38.86;98856.66;1736691;82;20960;-74
2022/04/02 06:50:31;;;;;;;25.92;6.22;;;;;;;21.36;38.44;98852.23;1736107;82;20940;-76
2022/04/02 06:52:58;;;;;;;26.12;5.70;;;;;;;21.55;38.19;98842.63;1736286;82;20926;-75
2022/04/02 06:55:25;;;;;;;25.57;6.50;;;;;;;21.69;37.75;98849.58;1736202;81;21249;-75
2022/04/02 06:57:55;;;;;;;35.95;6.03;;;;;;;21.87;37.56;98849.45;1736050;82;20941;-75
2022/04/02 07:00:22;;;;;;;24.98;5.85;;;;;;;22.12;37.12;98854.42;1736130;82;20968;-75
2022/04/02 07:02:49;;;;;;;21.15;5.00;;;;;;;22.27;36.77;98840.01;1736363;81;20968;-75
2022/04/02 07:05:16;;;;;;;23.65;5.58;;;;;;;22.46;36.66;98840.97;1736187;82;20940;-75
2022/04/02 07:07:46;;;;;;;24.45;5.50;;;;;;;22.76;36.02;98838.52;1736138;82;21264;-76
2022/04/02 07:10:13;;;;;;;25.43;8.18;;;;;;;23.00;35.61;98857.02;1737147;81;20948;-76
2022/04/02 07:12:40;;;;;;;22.90;6.37;;;;;;;23.20;35.35;98836.81;1750148;82;20928;-74
2022/04/02 07:15:08;;;;;;;21.93;5.45;;;;;;;23.44;34.70;98827.67;1750169;80;20903;-75
2022/04/02 07:17:34;;;;;;;20.05;4.08;;;;;;;23.69;34.32;98828.45;1750358;80;20920;-75
2022/04/02 07:20:01;;;;;;;16.32;3.92;;;;;;;23.93;33.85;98828.13;1750123;82;21330;-74
2022/04/02 07:22:28;;;;;;;21.02;3.72;;;;;;;24.16;33.48;98830.64;1750141;80;20924;-74
2022/04/02 07:24:56;;;;;;;18.95;4.33;;;;;;;24.38;32.82;98847.88;1750237;82;21402;-75
2022/04/02 07:27:27;;;;;;;14.60;3.80;;;;;;;24.47;32.77;98840.88;1750067;80;20939;-75
2022/04/02 07:29:55;;;;;;;12.90;3.08;;;;;;;24.65;32.41;98823.44;1750543;82;20912;-73
2022/04/02 07:32:22;;;;;;;14.53;3.47;;;;;;;24.84;31.91;98830.09;1750148;80;21146;-74
2022/04/02 07:34:49;;;;;;;14.53;2.55;;;;;;;24.99;31.58;98831.80;1750410;82;20932;-72
2022/04/02 07:37:27;;;;;;;12.43;3.85;;;;;;;25.23;31.13;98827.33;1750503;82;21461;-74
2022/04/02 07:40:06;;;;;;;14.93;3.22;;;;;;;25.37;30.56;98832.78;1749932;82;20991;-74
2022/04/02 07:42:57;;;;;;;19.50;2.87;;;;;;;25.35;30.48;98831.39;1750209;80;21496;-74
2022/04/02 07:45:28;;;;;;;8.90;2.77;;;;;;;25.33;30.33;98830.80;1744330;82;21061;-74
2022/04/02 07:47:56;;;;;;;18.37;2.58;;;;;;;25.39;30.33;98833.88;1750267;81;20928;-75
2022/04/02 07:50:26;;;;;;;16.02;3.45;;;;;;;25.44;30.00;98832.14;1750035;82;20964;-74
2022/04/02 07:52:55;;;;;;;19.75;3.20;;;;;;;25.50;29.82;98839.80;1750208;80;20943;-75
2022/04/02 07:55:24;;;;;;;16.82;2.90;;;;;;;25.50;29.56;98817.48;1750127;80;20944;-75
2022/04/02 07:57:53;;;;;;;17.40;4.15;;;;;;;25.54;29.64;98807.38;1750370;82;21142;-74
2022/04/02 08:00:22;;;;;;;17.87;2.85;;;;;;;25.82;29.63;98818.75;1750074;80;21548;-75
2022/04/02 08:02:49;;;;;;;20.72;2.62;;;;;;;26.12;28.58;98818.31;1750181;81;20896;-74
2022/04/02 08:05:20;;;;;;;13.18;2.65;;;;;;;26.18;28.57;98818.70;1749878;80;21379;-75
2022/04/02 08:07:52;;;;;;;17.20;3.47;;;;;;;26.32;28.67;98816.55;1750197;80;20921;-73
2022/04/02 08:10:23;;;;;;;11.80;2.60;;;;;;;26.49;27.95;98809.90;1750412;82;21107;-73
2022/04/02 08:12:52;;;;;;;10.88;3.22;;;;;;;26.55;28.00;98811.13;1750708;82;21454;-74
2022/04/02 08:15:20;;;;;;;13.93;2.72;;;;;;;26.71;27.77;98824.85;1750132;82;20939;-77
2022/04/02 08:17:54;;;;;;;12.53;2.62;;;;;;;26.69;27.63;98817.02;1750186;81;20884;-75
2022/04/02 08:20:23;;;;;;;12.63;3.33;;;;;;;26.63;27.92;98808.03;1750385;81;21017;-74
2022/04/02 08:22:51;;;;;;;10.88;2.95;;;;;;;26.72;28.03;98799.58;1750188;82;21018;-77
2022/04/02 08:25:19;;;;;;;13.08;4.45;;;;;;;26.94;27.94;98809.10;1750117;82;20857;-76
2022/04/02 08:27:55;;;;;;;21.00;3.90;;;;;;;27.19;27.31;98812.73;1750714;82;20892;-74
2022/04/02 08:30:51;;;;;;;11.73;3.27;;;;;;;27.26;27.09;98811.55;1751315;82;21537;-73
2022/04/02 08:33:38;;;;;;;19.30;3.90;;;;;;;27.18;27.20;98797.12;1750661;81;20972;-73
2022/04/02 08:36:25;;;;;;;26.25;3.95;;;;;;;27.11;27.29;98801.86;1750091;82;21143;-75
2022/04/02 08:39:09;;;;;;;14.78;3.08;;;;;;;27.08;27.47;98796.97;1750119;82;20967;-75
2022/04/02 08:42:02;;;;;;;12.80;3.15;;;;;;;27.08;27.50;98799.67;1750043;81;21564;-75
2022/04/02 08:45:04;;;;;;;8.70;2.67;;;;;;;27.14;27.17;98797.85;1747479;82;21426;-75
2022/04/02 08:48:11;;;;;;;15.35;4.05;;;;;;;27.08;27.47;98791.05;1750245;82;20971;-75
2022/04/02 08:50:48;;;;;;;13.35;2.83;;;;;;;27.18;27.55;98786.89;1749477;80;21216;-75
2022/04/02 08:53:22;;;;;;;16.62;3.10;;;;;;;27.41;27.10;98788.59;1749423;82;20928;-75
2022/04/02 08:55:53;;;;;;;19.12;3.70;;;;;;;27.39;27.08;98774.06;1750281;82;20869;-74
2022/04/02 08:58:27;;;;;;;13.05;5.97;;;;;;;27.39;27.25;98778.09;1750216;82;20916;-77
2022/04/02 09:01:09;;;;;;;14.93;3.77;;;;;;;27.57;26.73;98762.70;1750354;81;20920;-76
2022/04/02 09:04:02;;;;;;;11.93;2.90;;;;;;;27.56;26.78;98755.16;1750211;82;20845;-75
2022/04/02 09:07:08;;;;;;;20.08;3.72;;;;;;;27.60;26.89;98760.33;1750005;82;20869;-75
2022/04/02 09:10:00;;;;;;;11.80;2.92;;;;;;;27.73;27.27;98764.55;1750119;82;20873;-76
2022/04/02 09:12:42;;;;;;;12.30;3.15;;;;;;;27.86;26.71;98760.16;1749741;81;20900;-75
2022/04/02 09:15:16;;;;;;;11.88;3.12;;;;;;;27.88;26.73;98766.63;1749740;82;20927;-75
2022/04/02 09:18:16;;;;;;;13.70;3.42;;;;;;;27.90;26.64;98761.80;1750309;80;21077;-75
2022/04/02 09:20:54;;;;;;;13.08;2.60;;;;;;;27.94;26.77;98751.35;1749498;82;20942;-77
2022/04/02 09:23:40;;;;;;;13.95;3.08;;;;;;;27.85;26.72;98768.48;1750043;82;21445;-75
2022/04/02 09:26:56;;;;;;;19.55;3.77;;;;;;;27.49;27.19;98761.27;1749973;81;20908;-74
2022/04/02 09:29:45;;;;;;;11.93;3.65;;;;;;;26.86;27.90;98777.52;1749055;81;20932;-76
2022/04/02 09:32:35;;;;;;;15.93;3.83;;;;;;;26.01;28.94;98788.56;1747610;82;22417;-76
2022/04/02 09:35:38;;;;;;;12.10;3.42;;;;;;;25.25;30.07;98790.35;1749638;81;21007;-77
2022/04/02 09:38:32;;;;;;;11.28;4.20;;;;;;;24.55;31.44;98792.36;1749974;82;20963;-73
2022/04/02 09:41:21;;;;;;;14.68;3.80;;;;;;;23.83;33.28;98807.73;1749237;82;20853;-78
2022/04/02 09:44:15;;;;;;;18.40;4.35;;;;;;;23.26;35.19;98821.23;1750231;82;20931;-77
2022/04/02 09:47:07;;;;;;;9.58;3.70;;;;;;;22.75;36.10;98804.30;1750383;82;21097;-76
2022/04/02 09:50:11;;;;;;;11.35;3.55;;;;;;;22.34;37.13;98805.58;1750599;81;21402;-76
2022/04/02 09:52:49;;;;;;;13.30;3.25;;;;;;;22.09;38.29;98804.62;1695207;84;20863;-75
2022/04/02 09:55:22;;;;;;;13.88;3.80;;;;;;;21.85;38.15;98803.47;1693270;84;21060;-76
2022/04/02 09:58:18;;;;;;;10.88;3.08;;;;;;;21.89;38.33;98802.83;1694663;83;21014;-78
2022/04/02 10:01:06;;;;;;;9.98;4.67;;;;;;;22.23;37.64;98798.23;1693984;84;21824;-74
2022/04/02 10:04:02;;;;;;;14.00;3.17;;;;;;;22.42;36.50;98796.48;1693748;84;20962;-75
2022/04/02 10:06:41;;;;;;;16.27;4.42;;;;;;;22.52;36.28;98792.00;1693189;84;21049;-75
2022/04/02 10:09:18;;;;;;;11.68;2.95;;;;;;;22.53;36.09;98781.11;1693998;84;21006;-73
2022/04/02 10:11:55;;;;;;;7.80;2.45;;;;;;;22.37;36.23;98768.77;1691755;83;20947;-77
2022/04/02 10:14:26;;;;;;;13.00;3.60;;;;;;;22.31;36.50;98769.94;1687603;85;21229;-76
2022/04/02 10:16:56;;;;;;;10.30;3.47;;;;;;;22.51;36.34;98765.81;1686976;83;21457;-75
2022/04/02 10:19:38;;;;;;;18.45;3.85;;;;;;;22.86;35.82;98764.03;1687064;85;21022;-74
2022/04/02 10:22:11;;;;;;;17.77;4.22;;;;;;;23.06;35.53;98754.55;1687549;85;20987;-75
2022/04/02 10:24:49;;;;;;;17.90;3.77;;;;;;;23.16;35.47;98750.84;1687088;83;21402;-75
2022/04/02 10:27:34;;;;;;;13.05;4.08;;;;;;;23.19;35.33;98744.27;1732867;82;21253;-76
2022/04/02 10:30:09;;;;;;;13.70;3.10;;;;;;;23.08;35.48;98744.45;1748700;82;21010;-75
2022/04/02 10:35:48;;;;;;;21.55;5.25;;;;;;;23.12;35.54;98754.17;1724502;82;20896;-74
2022/04/02 10:38:25;;;;;;;21.68;4.95;;;;;;;22.87;35.69;98730.91;1749500;80;21399;-74
2022/04/02 10:40:53;;;;;;;31.90;4.50;;;;;;;22.93;35.62;98726.03;1749365;82;21200;-74
2022/04/02 10:43:28;;;;;;;23.50;6.17;;;;;;;23.09;35.63;98716.66;1749420;82;20885;-75
2022/04/02 10:45:57;;;;;;;17.07;4.20;;;;;;;23.38;35.01;98712.46;1749544;82;20975;-76
2022/04/02 10:49:00;;;;;;;19.00;5.45;;;;;;;23.67;34.49;98726.14;1749312;80;20984;-75
2022/04/02 10:51:29;;;;;;;14.93;4.12;;;;;;;23.62;34.20;98711.28;1749398;80;20904;-75
2022/04/02 10:54:08;;;;;;;18.07;4.65;;;;;;;23.45;34.37;98708.38;1749669;82;21119;-73
2022/04/02 10:56:46;;;;;;;22.13;3.83;;;;;;;23.30;34.57;98696.72;1749269;80;21441;-75
2022/04/02 10:59:14;;;;;;;31.37;5.12;;;;;;;23.30;34.63;98665.13;1749426;81;21026;-75
2022/04/02 11:01:44;;;;;;;22.58;4.78;;;;;;;23.40;34.68;98690.84;1749379;82;20971;-75
2022/04/02 11:04:31;;;;;;;24.37;4.37;;;;;;;23.63;34.35;98668.75;1749760;82;20889;-75
2022/04/02 11:07:00;;;;;;;18.70;4.90;;;;;;;23.89;33.13;98686.37;1749495;80;21215;-76
2022/04/02 11:09:39;;;;;;;18.17;4.20;;;;;;;24.14;32.67;98674.70;1749412;82;20876;-75
2022/04/02 11:12:19;;;;;;;19.15;5.15;;;;;;;24.24;32.63;98662.92;1749751;81;20931;-76
2022/04/02 11:14:49;;;;;;;26.87;4.15;;;;;;;24.31;32.43;98654.78;1749348;80;20927;-73
2022/04/02 11:17:35;;;;;;;29.00;5.47;;;;;;;24.36;32.57;98650.88;1750221;80;20983;-76
2022/04/02 11:20:10;;;;;;;15.40;3.85;;;;;;;24.48;32.54;98664.33;1723923;82;21197;-75
2022/04/02 11:23:17;;;;;;;23.10;6.25;;;;;;;24.65;32.28;98645.18;1723974;83;20864;-74
2022/04/02 11:25:49;;;;;;;24.20;4.00;;;;;;;24.65;32.02;98641.69;1724086;82;20951;-75
2022/04/02 11:28:22;;;;;;;22.00;5.00;;;;;;;24.47;32.10;98649.27;1724336;83;20975;-76
2022/04/02 11:31:03;;;;;;;21.42;3.98;;;;;;;24.28;32.39;98644.01;1724091;81;20887;-76
2022/04/02 11:33:33;;;;;;;17.85;3.72;;;;;;;24.30;32.39;98643.76;1702189;83;21018;-75
2022/04/02 11:36:06;;;;;;;17.80;3.50;;;;;;;24.36;32.07;98630.26;1724036;83;21410;-75
2022/04/02 11:38:53;;;;;;;14.63;3.72;;;;;;;24.44;32.15;98664.48;1724122;83;21623;-75
2022/04/02 11:41:23;;;;;;;26.62;4.30;;;;;;;24.45;31.64;98640.65;1723829;82;20907;-75
2022/04/02 11:43:54;;;;;;;26.42;5.42;;;;;;;24.50;31.71;98618.02;1700144;83;20900;-73
2022/04/02 11:46:21;;;;;;;18.65;3.85;;;;;;;24.57;31.54;98636.97;1723374;83;21206;-72
2022/04/02 11:48:57;;;;;;;25.05;4.45;;;;;;;24.48;31.43;98620.11;1724561;83;20987;-73
2022/04/02 11:51:29;;;;;;;17.20;3.83;;;;;;;24.32;31.55;98623.75;1723962;81;20931;-75
2022/04/02 11:54:10;;;;;;;35.78;21.27;;;;;;;24.10;31.92;98615.44;1723968;82;20999;-74
2022/04/02 11:56:46;;;;;;;25.25;5.97;;;;;;;23.99;31.52;98599.63;1744598;82;20845;-74